createdAt,value
2024-01-06T00:00:24.300Z,0.00
2024-01-06T00:02:51.563Z,0.00
2024-01-06T00:05:18.474Z,0.10
2024-01-06T00:07:45.391Z,0.00
2024-01-06T00:10:14.059Z,0.05
2024-01-06T00:12:42.907Z,0.35
2024-01-06T00:15:10.119Z,0.00
2024-01-06T00:17:37.118Z,0.25
2024-01-06T00:20:05.860Z,0.65
2024-01-06T00:22:32.891Z,0.00
2024-01-06T00:25:00.941Z,0.00
2024-01-06T00:27:28.074Z,0.00
2024-01-06T00:29:55.065Z,0.00
2024-01-06T00:32:21.983Z,0.00
2024-01-06T00:34:49.007Z,0.05
2024-01-06T00:37:16.347Z,0.00
2024-01-06T00:39:43.409Z,1.15
2024-01-06T00:42:10.408Z,0.00
2024-01-06T00:44:38.538Z,0.38
2024-01-06T00:47:05.580Z,0.00
2024-01-06T00:49:32.797Z,0.10
2024-01-06T00:52:00.084Z,0.00
2024-01-06T00:54:27.766Z,0.00
2024-01-06T00:56:58.142Z,0.03
2024-01-06T00:59:26.907Z,0.00
2024-01-06T01:01:53.929Z,0.00
2024-01-06T01:04:21.119Z,0.30
2024-01-06T01:06:48.609Z,0.00
2024-01-06T01:09:15.809Z,0.00
2024-01-06T01:11:43.303Z,2.08
2024-01-06T01:14:10.577Z,0.00
2024-01-06T01:16:37.589Z,0.00
2024-01-06T01:19:04.677Z,0.40
2024-01-06T01:21:31.788Z,0.00
2024-01-06T01:23:58.948Z,0.00
2024-01-06T01:26:26.759Z,0.00
2024-01-06T01:28:53.763Z,0.00
2024-01-06T01:31:20.990Z,0.00
2024-01-06T01:33:48.305Z,1.08
2024-01-06T01:36:15.408Z,0.00
2024-01-06T01:38:42.345Z,1.65
2024-01-06T01:41:09.350Z,0.00
2024-01-06T01:43:37.649Z,0.10
2024-01-06T01:46:04.950Z,0.00
2024-01-06T01:48:35.181Z,0.55
2024-01-06T01:51:03.185Z,0.00
2024-01-06T01:53:32.504Z,1.02
2024-01-06T01:55:59.973Z,0.00
2024-01-06T01:58:27.042Z,0.00
2024-01-06T02:00:55.079Z,0.32
2024-01-06T02:03:25.829Z,0.00
2024-01-06T02:05:53.385Z,0.00
2024-01-06T02:08:20.527Z,1.60
2024-01-06T02:10:47.929Z,0.00
2024-01-06T02:13:15.068Z,0.68
2024-01-06T02:15:42.292Z,0.00
2024-01-06T02:18:11.130Z,0.00
2024-01-06T02:20:38.948Z,0.00
2024-01-06T02:23:06.020Z,0.65
2024-01-06T02:25:33.508Z,0.10
2024-01-06T02:28:00.349Z,0.00
2024-01-06T02:30:27.574Z,0.75
2024-01-06T02:32:54.702Z,0.00
2024-01-06T02:35:22.070Z,0.17
2024-01-06T02:37:49.073Z,0.00
2024-01-06T02:40:16.142Z,0.00
2024-01-06T02:42:43.195Z,0.00
2024-01-06T02:45:13.206Z,0.00
2024-01-06T02:47:40.536Z,0.00
2024-01-06T02:50:08.178Z,0.00
2024-01-06T02:52:35.276Z,0.00
2024-01-06T02:55:02.581Z,0.25
2024-01-06T02:57:31.144Z,0.00
2024-01-06T02:59:58.421Z,0.15
2024-01-06T03:02:25.563Z,0.00
2024-01-06T03:04:52.602Z,0.00
2024-01-06T03:07:19.854Z,0.00
2024-01-06T03:09:47.084Z,0.00
2024-01-06T03:12:14.408Z,0.00
2024-01-06T03:14:41.647Z,1.45
2024-01-06T03:17:11.550Z,0.00
2024-01-06T03:19:40.200Z,1.17
2024-01-06T03:22:07.809Z,0.00
2024-01-06T03:24:35.625Z,0.00
2024-01-06T03:27:03.809Z,0.00
2024-01-06T03:29:31.250Z,0.00
2024-01-06T03:31:59.996Z,0.00
2024-01-06T03:34:29.609Z,0.20
2024-01-06T03:36:56.726Z,0.00
2024-01-06T03:39:24.135Z,0.00
2024-01-06T03:41:51.070Z,0.00
2024-01-06T03:44:18.183Z,0.52
2024-01-06T03:46:45.161Z,0.00
2024-01-06T03:49:12.444Z,0.00
2024-01-06T03:51:39.801Z,0.00
2024-01-06T03:54:06.894Z,0.00
2024-01-06T03:56:33.834Z,0.00
2024-01-06T03:59:00.754Z,0.00
2024-01-06T04:01:27.799Z,1.10
2024-01-06T04:03:54.852Z,0.20
2024-01-06T04:06:21.956Z,0.00
2024-01-06T04:08:48.886Z,0.00
2024-01-06T04:11:15.919Z,0.00
2024-01-06T04:13:42.903Z,0.00
2024-01-06T04:16:09.904Z,0.00
2024-01-06T04:18:36.994Z,0.00
2024-01-06T04:21:04.500Z,0.10
2024-01-06T04:23:31.690Z,0.00
2024-01-06T04:25:58.935Z,0.20
2024-01-06T04:28:25.783Z,0.00
2024-01-06T04:30:53.169Z,0.00
2024-01-06T04:33:20.437Z,0.00
2024-01-06T04:35:47.696Z,0.90
2024-01-06T04:38:14.863Z,0.00
2024-01-06T04:40:41.933Z,0.00
2024-01-06T04:43:08.890Z,0.00
2024-01-06T04:45:38.567Z,0.00
2024-01-06T04:48:06.394Z,0.00
2024-01-06T04:50:35.933Z,0.00
2024-01-06T04:53:03.011Z,0.98
2024-01-06T04:55:30.011Z,0.00
2024-01-06T04:57:57.368Z,0.00
2024-01-06T05:00:24.815Z,0.00
2024-01-06T05:02:51.845Z,0.00
2024-01-06T05:05:19.173Z,0.00
2024-01-06T05:07:46.149Z,0.00
2024-01-06T05:10:13.187Z,0.10
2024-01-06T05:12:40.281Z,0.05
2024-01-06T05:15:08.804Z,0.45
2024-01-06T05:17:35.895Z,0.00
2024-01-06T05:20:02.884Z,0.00
2024-01-06T05:22:29.967Z,0.00
2024-01-06T05:24:57.167Z,0.00
2024-01-06T05:27:24.110Z,0.00
2024-01-06T05:29:53.026Z,0.00
2024-01-06T05:32:20.464Z,0.00
2024-01-06T05:34:48.113Z,0.00
2024-01-06T05:37:15.375Z,0.00
2024-01-06T05:39:42.574Z,0.00
2024-01-06T05:42:14.239Z,0.00
2024-01-06T05:44:43.167Z,0.00
2024-01-06T05:47:10.955Z,0.00
2024-01-06T05:49:47.409Z,0.00
2024-01-06T05:52:17.817Z,0.38
2024-01-06T05:54:45.472Z,0.20
2024-01-06T05:57:13.093Z,0.43
2024-01-06T05:59:41.879Z,0.00
2024-01-06T06:02:12.787Z,0.00
2024-01-06T06:04:40.135Z,0.00
2024-01-06T06:07:07.426Z,0.00
2024-01-06T06:09:36.112Z,0.00
2024-01-06T06:12:03.858Z,0.00
2024-01-06T06:14:31.745Z,0.00
2024-01-06T06:16:59.656Z,0.00
2024-01-06T06:19:27.403Z,1.25
2024-01-06T06:21:55.023Z,0.43
2024-01-06T06:24:22.164Z,0.00
2024-01-06T06:26:49.179Z,0.00
2024-01-06T06:29:16.511Z,0.28
2024-01-06T06:31:46.349Z,0.00
2024-01-06T06:34:14.108Z,0.00
2024-01-06T06:36:41.779Z,0.00
2024-01-06T06:39:08.720Z,0.52
2024-01-06T06:41:35.670Z,1.48
2024-01-06T06:44:02.554Z,0.00
2024-01-06T06:46:29.636Z,0.00
2024-01-06T06:48:56.665Z,0.22
2024-01-06T06:51:26.564Z,0.00
2024-01-06T06:53:53.721Z,0.00
2024-01-06T06:56:20.684Z,0.55
2024-01-06T06:58:47.646Z,0.20
2024-01-06T07:01:18.133Z,0.32
2024-01-06T07:03:45.516Z,0.10
2024-01-06T07:06:16.833Z,0.00
2024-01-06T07:08:43.854Z,0.00
2024-01-06T07:11:12.771Z,0.00
2024-01-06T07:13:39.947Z,0.00
2024-01-06T07:16:14.959Z,0.00
2024-01-06T07:18:46.017Z,0.00
2024-01-06T07:21:14.084Z,0.00
2024-01-06T07:23:41.266Z,0.00
2024-01-06T07:26:09.659Z,0.00
2024-01-06T07:28:36.701Z,0.00
2024-01-06T07:31:03.915Z,0.05
2024-01-06T07:33:31.123Z,0.10
2024-01-06T07:35:58.161Z,0.00
2024-01-06T07:38:25.388Z,0.00
2024-01-06T07:40:52.902Z,0.00
2024-01-06T07:43:20.324Z,0.00
2024-01-06T07:45:47.384Z,0.00
2024-01-06T07:48:14.485Z,0.00
2024-01-06T07:50:41.665Z,0.00
2024-01-06T07:53:08.680Z,0.00
2024-01-06T07:55:35.980Z,1.45
2024-01-06T07:58:03.474Z,0.00
2024-01-06T08:00:30.606Z,0.20
2024-01-06T08:02:57.811Z,0.00
2024-01-06T08:05:24.920Z,0.00
2024-01-06T08:07:53.272Z,0.70
2024-01-06T08:10:22.070Z,0.00
2024-01-06T08:12:49.656Z,0.35
2024-01-06T08:15:16.759Z,0.00
2024-01-06T08:17:44.235Z,0.00
2024-01-06T08:20:11.772Z,0.15
2024-01-06T08:22:38.823Z,0.60
2024-01-06T08:25:09.269Z,0.03
2024-01-06T08:27:36.433Z,0.00
2024-01-06T08:30:04.065Z,0.10
2024-01-06T08:32:31.218Z,0.00
2024-01-06T08:34:58.471Z,0.00
2024-01-06T08:37:25.454Z,0.10
2024-01-06T08:39:54.195Z,0.73
2024-01-06T08:42:21.409Z,0.00
2024-01-06T08:44:49.230Z,0.00
2024-01-06T08:47:16.363Z,0.00
2024-01-06T08:49:43.660Z,0.00
2024-01-06T08:52:10.894Z,0.00
2024-01-06T08:54:37.885Z,0.00
2024-01-06T08:57:05.163Z,0.03
2024-01-06T08:59:32.135Z,0.40
2024-01-06T09:01:59.440Z,0.00
2024-01-06T09:04:26.596Z,0.45
2024-01-06T09:06:53.750Z,0.00
2024-01-06T09:09:20.819Z,0.00
2024-01-06T09:11:47.756Z,0.00
2024-01-06T09:14:14.811Z,0.30
2024-01-06T09:16:42.233Z,0.30
2024-01-06T09:19:09.558Z,0.00
2024-01-06T09:21:37.213Z,0.30
2024-01-06T09:24:07.889Z,0.00
2024-01-06T09:26:35.293Z,0.00
2024-01-06T09:29:04.084Z,0.30
2024-01-06T09:31:31.810Z,0.45
2024-01-06T09:34:05.299Z,0.00
2024-01-06T09:36:32.938Z,0.00
2024-01-06T09:39:00.324Z,0.00
2024-01-06T09:41:27.598Z,0.00
2024-01-06T09:43:55.262Z,1.98
2024-01-06T09:46:36.952Z,1.88
2024-01-06T09:49:05.656Z,0.00
2024-01-06T09:51:32.837Z,0.00
2024-01-06T09:54:01.748Z,0.95
2024-01-06T09:56:30.751Z,0.00
2024-01-06T09:58:58.687Z,0.00
2024-01-06T10:01:26.347Z,0.45
2024-01-06T10:03:55.883Z,0.00
2024-01-06T10:06:23.740Z,0.70
2024-01-06T10:08:52.699Z,0.00
2024-01-06T10:11:29.054Z,0.00
2024-01-06T10:13:56.248Z,0.40
2024-01-06T10:16:24.101Z,0.80
2024-01-06T10:18:53.981Z,0.08
2024-01-06T10:21:27.021Z,0.00
2024-01-06T10:23:56.104Z,0.00
2024-01-06T10:26:23.359Z,0.00
2024-01-06T10:28:51.572Z,0.08
2024-01-06T10:31:19.334Z,0.00
2024-01-06T10:33:47.206Z,0.03
2024-01-06T10:36:15.321Z,0.10
2024-01-06T10:38:42.397Z,0.00
2024-01-06T10:41:12.488Z,0.00
2024-01-06T10:43:42.641Z,0.00
2024-01-06T10:46:13.107Z,0.13
2024-01-06T10:48:44.953Z,0.00
2024-01-06T10:51:15.242Z,0.00
2024-01-06T10:53:42.880Z,0.40
2024-01-06T10:56:14.197Z,0.10
2024-01-06T10:58:48.695Z,0.03
2024-01-06T11:01:20.365Z,0.00
2024-01-06T11:03:51.185Z,0.00
2024-01-06T11:06:20.528Z,0.00
2024-01-06T11:09:09.783Z,0.00
2024-01-06T11:11:38.627Z,0.00
2024-01-06T11:14:26.038Z,0.00
2024-01-06T11:16:54.710Z,0.00
2024-01-06T11:19:41.355Z,0.00
2024-01-06T11:22:32.817Z,0.10
2024-01-06T11:25:14.649Z,0.00
2024-01-06T11:27:44.298Z,0.00
2024-01-06T11:30:26.947Z,0.00
2024-01-06T11:35:23.453Z,0.00
2024-01-06T11:37:50.872Z,0.30
2024-01-06T11:40:26.774Z,0.32
2024-01-06T11:43:08.595Z,0.93
2024-01-06T11:45:37.865Z,1.30
2024-01-06T11:48:08.287Z,0.10
2024-01-06T11:50:38.105Z,0.00
2024-01-06T11:53:06.796Z,0.00
2024-01-06T11:55:34.643Z,0.52
2024-01-06T11:58:07.185Z,0.60
2024-01-06T12:00:36.289Z,0.25
2024-01-06T12:03:03.883Z,0.32
2024-01-06T12:05:31.306Z,0.52
2024-01-06T12:08:00.261Z,1.27
2024-01-06T12:10:28.768Z,1.50
2024-01-06T12:13:03.454Z,1.83
2024-01-06T12:15:34.905Z,1.05
2024-01-06T12:18:05.276Z,2.28
2024-01-06T12:20:32.761Z,1.45
2024-01-06T12:23:01.768Z,2.75
2024-01-06T12:25:30.627Z,1.73
2024-01-06T12:27:58.170Z,2.60
2024-01-06T12:30:25.800Z,2.33
2024-01-06T12:32:55.825Z,2.38
2024-01-06T12:35:24.233Z,2.65
2024-01-06T12:37:52.875Z,2.80
2024-01-06T12:40:21.341Z,2.13
2024-01-06T12:42:48.753Z,2.88
2024-01-06T12:45:18.143Z,2.28
2024-01-06T12:47:46.011Z,2.25
2024-01-06T12:50:13.374Z,2.28
2024-01-06T12:52:41.059Z,2.88
2024-01-06T12:55:09.430Z,4.25
2024-01-06T12:57:37.403Z,4.05
2024-01-06T13:00:08.955Z,3.67
2024-01-06T13:02:36.672Z,4.35
2024-01-06T13:05:05.778Z,3.75
2024-01-06T13:07:33.017Z,2.92
2024-01-06T13:10:01.407Z,3.58
2024-01-06T13:12:30.634Z,4.38
2024-01-06T13:14:58.731Z,4.75
2024-01-06T13:17:26.716Z,3.33
2024-01-06T13:19:53.765Z,5.60
2024-01-06T13:22:23.725Z,7.07
2024-01-06T13:24:53.829Z,6.07
2024-01-06T13:27:22.222Z,5.05
2024-01-06T13:29:50.264Z,4.85
2024-01-06T13:32:18.423Z,5.82
2024-01-06T13:34:45.747Z,6.53
2024-01-06T13:37:13.501Z,5.20
2024-01-06T13:39:40.738Z,4.93
2024-01-06T13:42:09.534Z,4.55
2024-01-06T13:44:36.638Z,6.38
2024-01-06T13:47:05.744Z,6.78
2024-01-06T13:49:33.393Z,8.68
2024-01-06T13:52:00.733Z,9.65
2024-01-06T13:54:28.372Z,10.27
2024-01-06T13:56:55.482Z,14.27
2024-01-06T13:59:22.593Z,14.48
2024-01-06T14:01:49.888Z,17.17
2024-01-06T14:04:18.618Z,15.50
2024-01-06T14:06:49.153Z,14.88
2024-01-06T14:09:16.741Z,3.08
2024-01-06T14:11:43.915Z,1.33
2024-01-06T14:14:12.637Z,2.00
2024-01-06T14:16:40.028Z,0.38
2024-01-06T14:19:08.114Z,4.07
2024-01-06T14:21:35.475Z,0.10
2024-01-06T14:24:02.818Z,0.32
2024-01-06T14:26:30.331Z,1.92
2024-01-06T14:28:59.169Z,1.67
2024-01-06T14:31:28.372Z,0.00
2024-01-06T14:34:00.148Z,0.88
2024-01-06T14:36:27.972Z,1.15
2024-01-06T14:38:55.413Z,1.27
2024-01-06T14:41:22.365Z,0.55
2024-01-06T14:43:49.778Z,0.00
2024-01-06T14:46:16.776Z,1.45
2024-01-06T14:48:43.964Z,1.00
2024-01-06T14:51:11.055Z,0.57
2024-01-06T14:53:38.145Z,0.43
2024-01-06T14:56:05.722Z,1.33
2024-01-06T14:58:32.634Z,0.60
2024-01-06T15:01:01.127Z,0.90
2024-01-06T15:03:28.771Z,0.00
2024-01-06T15:05:55.992Z,3.60
2024-01-06T15:08:23.100Z,0.00
2024-01-06T15:10:50.138Z,0.10
2024-01-06T15:13:17.561Z,0.73
2024-01-06T15:15:44.733Z,0.00
2024-01-06T15:18:12.080Z,1.25
2024-01-06T15:20:39.056Z,0.00
2024-01-06T15:23:06.218Z,3.53
2024-01-06T15:25:33.180Z,0.00
2024-01-06T15:28:00.270Z,0.00
2024-01-06T15:30:27.458Z,0.10
2024-01-06T15:32:54.600Z,0.20
2024-01-06T15:35:24.045Z,0.15
2024-01-06T15:37:51.513Z,0.00
2024-01-06T15:40:18.656Z,0.32
2024-01-06T15:42:45.708Z,0.00
2024-01-06T15:45:12.883Z,1.38
2024-01-06T15:47:40.193Z,0.73
2024-01-06T15:50:10.580Z,0.05
2024-01-06T15:52:38.320Z,0.70
2024-01-06T15:55:05.912Z,0.00
2024-01-06T15:57:34.523Z,0.50
2024-01-06T16:00:01.541Z,0.40
2024-01-06T16:02:28.677Z,0.20
2024-01-06T16:04:55.895Z,2.20
2024-01-06T16:07:24.261Z,0.70
2024-01-06T16:09:51.204Z,0.10
2024-01-06T16:12:18.843Z,0.28
2024-01-06T16:14:45.829Z,0.45
2024-01-06T16:17:12.987Z,0.00
2024-01-06T16:19:41.316Z,1.45
2024-01-06T16:22:15.112Z,0.00
2024-01-06T16:24:45.176Z,0.95
2024-01-06T16:27:12.350Z,0.38
2024-01-06T16:29:40.190Z,0.98
2024-01-06T16:32:07.874Z,0.00
2024-01-06T16:34:36.274Z,1.75
2024-01-06T16:37:03.713Z,1.10
2024-01-06T16:39:32.737Z,1.10
2024-01-06T16:42:00.838Z,0.75
2024-01-06T16:44:29.641Z,0.00
2024-01-06T16:46:59.571Z,0.10
2024-01-06T16:49:31.200Z,0.00
2024-01-06T16:51:59.248Z,2.53
2024-01-06T16:54:26.582Z,0.70
2024-01-06T16:56:53.673Z,0.30
2024-01-06T16:59:21.084Z,0.30
2024-01-06T17:01:48.457Z,2.47
2024-01-06T17:04:17.080Z,3.10
2024-01-06T17:06:44.260Z,2.40
2024-01-06T17:09:12.959Z,0.00
2024-01-06T17:11:40.024Z,1.45
2024-01-06T17:14:06.944Z,0.52
2024-01-06T17:16:34.184Z,0.03
2024-01-06T17:19:01.366Z,0.50
2024-01-06T17:21:28.502Z,0.35
2024-01-06T17:23:57.096Z,0.32
2024-01-06T17:26:24.247Z,1.05
2024-01-06T17:28:51.450Z,1.80
2024-01-06T17:31:18.547Z,2.33
2024-01-06T17:33:45.799Z,0.38
2024-01-06T17:36:12.926Z,0.60
2024-01-06T17:38:40.018Z,0.05
2024-01-06T17:41:07.095Z,1.20
2024-01-06T17:43:34.017Z,1.60
2024-01-06T17:46:01.211Z,0.77
2024-01-06T17:48:28.726Z,1.13
2024-01-06T17:50:55.789Z,0.20
2024-01-06T17:53:22.753Z,0.50
2024-01-06T17:55:49.792Z,0.00
2024-01-06T17:58:16.744Z,0.68
2024-01-06T18:00:43.788Z,1.70
2024-01-06T18:03:12.135Z,1.50
2024-01-06T18:05:39.627Z,0.30
2024-01-06T18:08:07.086Z,2.65
2024-01-06T18:10:34.718Z,1.98
2024-01-06T18:13:01.846Z,0.80
2024-01-06T18:15:32.646Z,0.00
2024-01-06T18:18:01.916Z,0.00
2024-01-06T18:20:29.193Z,0.10
2024-01-06T18:22:56.293Z,2.10
2024-01-06T18:25:23.309Z,0.20
2024-01-06T18:27:50.459Z,1.45
2024-01-06T18:30:17.657Z,0.00
2024-01-06T18:32:45.222Z,1.10
2024-01-06T18:35:12.801Z,0.00
2024-01-06T18:37:39.999Z,0.10
2024-01-06T18:40:07.427Z,0.25
2024-01-06T18:42:34.797Z,0.38
2024-01-06T18:45:02.037Z,1.45
2024-01-06T18:47:29.861Z,0.80
2024-01-06T18:49:57.537Z,0.15
2024-01-06T18:52:24.745Z,0.00
2024-01-06T18:54:51.916Z,2.53
2024-01-06T18:57:19.440Z,0.00
2024-01-06T18:59:46.774Z,1.27
2024-01-06T19:02:14.701Z,0.25
2024-01-06T19:04:43.522Z,0.68
2024-01-06T19:07:11.209Z,3.38
2024-01-06T19:09:38.278Z,0.00
2024-01-06T19:12:06.954Z,0.00
2024-01-06T19:14:37.216Z,0.00
2024-01-06T19:17:04.521Z,0.43
2024-01-06T19:19:32.039Z,0.52
2024-01-06T19:21:59.481Z,0.00
2024-01-06T19:24:32.606Z,0.10
2024-01-06T19:27:03.688Z,0.00
2024-01-06T19:29:30.849Z,2.85
2024-01-06T19:31:58.660Z,0.00
2024-01-06T19:34:25.945Z,0.00
2024-01-06T19:36:53.271Z,0.10
2024-01-06T19:39:20.374Z,0.00
2024-01-06T19:41:48.788Z,0.00
2024-01-06T19:44:16.816Z,0.85
2024-01-06T19:46:44.494Z,2.47
2024-01-06T19:49:11.561Z,0.30
2024-01-06T19:51:38.856Z,0.00
2024-01-06T19:54:07.060Z,0.00
2024-01-06T19:56:35.353Z,0.63
2024-01-06T19:59:02.400Z,0.20
2024-01-06T20:01:30.260Z,0.55
2024-01-06T20:03:57.263Z,1.13
2024-01-06T20:06:24.610Z,0.32
2024-01-06T20:08:52.120Z,0.00
2024-01-06T20:11:19.120Z,0.20
2024-01-06T20:13:46.431Z,0.00
2024-01-06T20:16:13.459Z,0.00
2024-01-06T20:18:40.544Z,0.00
2024-01-06T20:21:09.198Z,0.10
2024-01-06T20:23:37.440Z,0.08
2024-01-06T20:26:05.096Z,0.00
2024-01-06T20:28:32.257Z,0.00
2024-01-06T20:30:59.768Z,0.00
2024-01-06T20:33:34.314Z,0.20
2024-01-06T20:36:02.337Z,0.08
2024-01-06T20:38:30.106Z,1.85
2024-01-06T20:40:57.720Z,0.00
2024-01-06T20:43:25.252Z,0.63
2024-01-06T20:45:54.687Z,0.00
2024-01-06T20:48:21.943Z,0.50
2024-01-06T20:50:49.249Z,0.00
2024-01-06T20:53:16.205Z,0.00
2024-01-06T20:55:44.526Z,0.00
2024-01-06T20:58:11.981Z,0.08
2024-01-06T21:00:39.223Z,0.00
2024-01-06T21:03:06.395Z,0.00
2024-01-06T21:05:33.500Z,0.10
2024-01-06T21:08:00.487Z,0.43
2024-01-06T21:10:27.460Z,1.98
2024-01-06T21:12:54.522Z,0.00
2024-01-06T21:15:23.800Z,0.57
2024-01-06T21:17:50.876Z,0.10
2024-01-06T21:20:18.007Z,0.00
2024-01-06T21:22:45.143Z,0.00
2024-01-06T21:25:12.156Z,0.00
2024-01-06T21:27:39.194Z,0.05
2024-01-06T21:30:07.278Z,0.00
2024-01-06T21:32:34.824Z,0.90
2024-01-06T21:35:05.310Z,0.00
2024-01-06T21:37:35.178Z,0.00
2024-01-06T21:40:07.921Z,0.08
2024-01-06T21:42:36.427Z,1.95
2024-01-06T21:45:04.731Z,0.00
2024-01-06T21:47:31.792Z,0.00
2024-01-06T21:49:58.936Z,0.00
2024-01-06T21:52:26.080Z,0.00
2024-01-06T21:54:53.149Z,0.00
2024-01-06T21:57:20.494Z,3.10
2024-01-06T21:59:47.525Z,0.00
2024-01-06T22:02:14.472Z,1.63
2024-01-06T22:04:42.221Z,0.32
2024-01-06T22:07:09.284Z,0.35
2024-01-06T22:09:36.397Z,0.08
2024-01-06T22:12:03.434Z,0.00
2024-01-06T22:14:30.865Z,0.00
2024-01-06T22:16:57.802Z,0.00
2024-01-06T22:19:24.774Z,0.10
2024-01-06T22:21:52.008Z,0.03
2024-01-06T22:24:18.949Z,1.13
2024-01-06T22:26:46.425Z,0.00
2024-01-06T22:29:13.350Z,0.00
2024-01-06T22:31:44.210Z,0.63
2024-01-06T22:34:13.942Z,0.08
2024-01-06T22:36:41.708Z,0.50
2024-01-06T22:39:09.158Z,0.00
2024-01-06T22:41:36.196Z,0.00
2024-01-06T22:44:04.407Z,0.00
2024-01-06T22:46:31.874Z,0.60
2024-01-06T22:48:59.823Z,0.28
2024-01-06T22:51:26.918Z,0.00
2024-01-06T22:53:56.852Z,0.03
2024-01-06T22:56:24.076Z,0.13
2024-01-06T22:58:51.120Z,0.00
2024-01-06T23:01:18.277Z,0.00
2024-01-06T23:03:45.517Z,0.45
2024-01-06T23:06:12.921Z,0.25
2024-01-06T23:08:40.206Z,0.00
2024-01-06T23:11:15.224Z,2.03
2024-01-06T23:13:42.277Z,0.15
2024-01-06T23:16:09.610Z,0.03
2024-01-06T23:18:37.365Z,0.00
2024-01-06T23:21:05.395Z,2.60
2024-01-06T23:23:33.058Z,0.28
2024-01-06T23:26:00.176Z,0.25
2024-01-06T23:28:27.240Z,0.00
2024-01-06T23:30:54.319Z,0.00
2024-01-06T23:33:21.641Z,0.00
2024-01-06T23:35:48.842Z,0.45
2024-01-06T23:38:15.814Z,0.00
2024-01-06T23:40:42.812Z,0.00
2024-01-06T23:43:10.795Z,0.00
2024-01-06T23:45:37.816Z,0.00
2024-01-06T23:48:05.472Z,0.00
2024-01-06T23:50:32.637Z,0.00
2024-01-06T23:52:59.910Z,0.05
2024-01-06T23:55:27.276Z,0.00
2024-01-06T23:57:55.025Z,0.00
